createdAt,value
2022-09-04T00:00:49.938Z,99.99
2022-09-04T00:01:49.903Z,99.99
2022-09-04T00:02:49.896Z,99.99
2022-09-04T00:03:50.007Z,99.99
2022-09-04T00:04:50.035Z,99.99
2022-09-04T00:05:49.858Z,99.99
2022-09-04T00:06:49.882Z,99.99
2022-09-04T00:07:49.838Z,99.99
2022-09-04T00:08:49.829Z,99.99
2022-09-04T00:09:49.863Z,99.99
2022-09-04T00:10:49.829Z,99.99
2022-09-04T00:11:49.797Z,99.99
2022-09-04T00:12:49.786Z,99.99
2022-09-04T00:13:49.778Z,99.99
2022-09-04T00:14:49.764Z,99.99
2022-09-04T00:15:49.806Z,99.99
2022-09-04T00:16:49.816Z,99.99
2022-09-04T00:17:49.727Z,99.99
2022-09-04T00:18:49.724Z,99.99
2022-09-04T00:19:49.729Z,99.99
2022-09-04T00:20:49.696Z,99.99
2022-09-04T00:21:49.730Z,99.99
2022-09-04T00:22:49.675Z,99.99
2022-09-04T00:23:49.663Z,99.99
2022-09-04T00:24:49.674Z,99.99
2022-09-04T00:25:49.651Z,99.99
2022-09-04T00:26:49.647Z,99.99
2022-09-04T00:27:49.662Z,99.99
2022-09-04T00:28:49.614Z,99.99
2022-09-04T00:29:49.605Z,99.99
2022-09-04T00:30:49.649Z,99.72
2022-09-04T00:31:49.594Z,99.99
2022-09-04T00:32:49.569Z,99.52
2022-09-04T00:33:49.601Z,99.99
2022-09-04T00:34:49.552Z,99.99
2022-09-04T00:35:49.533Z,99.97
2022-09-04T00:36:50.427Z,99.66
2022-09-04T00:37:49.527Z,99.87
2022-09-04T00:38:49.504Z,99.99
2022-09-04T00:39:49.575Z,99.87
2022-09-04T00:40:49.477Z,99.77
2022-09-04T00:41:49.472Z,99.99
2022-09-04T00:42:49.481Z,99.99
2022-09-04T00:43:49.499Z,99.99
2022-09-04T00:44:49.450Z,99.97
2022-09-04T00:45:49.487Z,99.77
2022-09-04T00:46:49.413Z,99.99
2022-09-04T00:47:49.431Z,99.97
2022-09-04T00:48:49.397Z,99.99
2022-09-04T00:49:49.395Z,99.99
2022-09-04T00:50:49.368Z,99.97
2022-09-04T00:51:49.387Z,99.26
2022-09-04T00:52:49.365Z,99.32
2022-09-04T00:53:49.336Z,99.62
2022-09-04T00:54:49.339Z,98.96
2022-09-04T00:55:49.312Z,98.50
2022-09-04T00:56:49.303Z,98.36
2022-09-04T00:57:49.324Z,98.20
2022-09-04T00:58:49.282Z,98.16
2022-09-04T00:59:49.315Z,98.36
2022-09-04T01:00:49.334Z,98.05
2022-09-04T01:01:49.429Z,98.30
2022-09-04T01:02:49.239Z,98.40
2022-09-04T01:03:49.291Z,98.81
2022-09-04T01:04:49.255Z,98.50
2022-09-04T01:05:49.213Z,98.61
2022-09-04T01:06:49.192Z,99.26
2022-09-04T01:07:49.183Z,99.41
2022-09-04T01:08:49.188Z,99.21
2022-09-04T01:09:50.185Z,99.41
2022-09-04T01:10:49.150Z,99.41
2022-09-04T01:11:49.152Z,99.11
2022-09-04T01:12:49.131Z,99.26
2022-09-04T01:13:49.130Z,99.56
2022-09-04T01:14:52.068Z,99.05
2022-09-04T01:15:49.142Z,99.36
2022-09-04T01:16:49.177Z,99.41
2022-09-04T01:17:49.077Z,99.32
2022-09-04T01:18:49.087Z,98.81
2022-09-04T01:19:49.076Z,98.75
2022-09-04T01:20:49.040Z,99.52
2022-09-04T01:21:49.072Z,99.36
2022-09-04T01:22:49.024Z,99.62
2022-09-04T01:23:49.009Z,99.21
2022-09-04T01:24:49.012Z,98.71
2022-09-04T01:25:48.993Z,98.61
2022-09-04T01:26:48.975Z,98.96
2022-09-04T01:27:48.996Z,98.96
2022-09-04T01:28:48.954Z,98.91
2022-09-04T01:29:48.969Z,99.21
2022-09-04T01:30:48.931Z,98.81
2022-09-04T01:31:49.002Z,98.61
2022-09-04T01:32:48.916Z,98.61
2022-09-04T01:33:48.959Z,98.71
2022-09-04T01:34:48.909Z,98.61
2022-09-04T01:35:48.905Z,98.71
2022-09-04T01:36:48.866Z,98.30
2022-09-04T01:37:48.864Z,98.40
2022-09-04T01:38:48.844Z,98.50
2022-09-04T01:39:48.908Z,98.61
2022-09-04T01:40:48.836Z,98.50
2022-09-04T01:41:48.812Z,98.71
2022-09-04T01:42:48.801Z,98.55
2022-09-04T01:43:48.790Z,98.50
2022-09-04T01:44:48.779Z,98.61
2022-09-04T01:45:48.852Z,98.81
2022-09-04T01:46:48.757Z,98.55
2022-09-04T01:47:48.754Z,98.75
2022-09-04T01:48:48.735Z,99.66
2022-09-04T01:49:48.751Z,99.36
2022-09-04T01:50:48.717Z,99.46
2022-09-04T01:51:48.733Z,99.26
2022-09-04T01:52:48.693Z,99.05
2022-09-04T01:53:48.684Z,99.26
2022-09-04T01:54:48.686Z,99.46
2022-09-04T01:55:48.693Z,99.36
2022-09-04T01:56:48.652Z,99.46
2022-09-04T01:57:48.637Z,99.16
2022-09-04T01:58:48.667Z,98.65
2022-09-04T01:59:51.858Z,98.85
2022-09-04T02:00:49.627Z,98.61
2022-09-04T02:01:48.666Z,98.65
2022-09-04T02:02:48.859Z,98.81
2022-09-04T02:03:48.571Z,98.61
2022-09-04T02:04:48.625Z,98.55
2022-09-04T02:05:48.569Z,98.30
2022-09-04T02:06:48.539Z,98.75
2022-09-04T02:07:48.526Z,98.75
2022-09-04T02:08:48.516Z,98.75
2022-09-04T02:09:48.528Z,98.55
2022-09-04T02:10:48.559Z,98.75
2022-09-04T02:11:48.481Z,98.45
2022-09-04T02:12:48.477Z,98.75
2022-09-04T02:13:48.464Z,98.65
2022-09-04T02:14:48.467Z,98.40
2022-09-04T02:15:48.444Z,98.45
2022-09-04T02:16:48.608Z,98.96
2022-09-04T02:17:48.426Z,98.45
2022-09-04T02:18:48.406Z,98.85
2022-09-04T02:19:48.407Z,99.46
2022-09-04T02:20:48.388Z,99.46
2022-09-04T02:21:48.377Z,99.46
2022-09-04T02:22:48.364Z,99.16
2022-09-04T02:23:48.388Z,99.56
2022-09-04T02:24:48.358Z,99.16
2022-09-04T02:25:48.330Z,99.36
2022-09-04T02:26:48.343Z,99.05
2022-09-04T02:27:48.309Z,99.56
2022-09-04T02:28:48.301Z,99.26
2022-09-04T02:29:48.310Z,99.51
2022-09-04T02:30:49.379Z,99.26
2022-09-04T02:31:49.457Z,99.41
2022-09-04T02:32:48.265Z,99.01
2022-09-04T02:33:48.246Z,99.56
2022-09-04T02:34:48.249Z,99.71
2022-09-04T02:35:48.262Z,99.41
2022-09-04T02:36:50.206Z,99.61
2022-09-04T02:37:48.233Z,99.51
2022-09-04T02:38:48.191Z,99.51
2022-09-04T02:39:48.251Z,99.61
2022-09-04T02:40:48.170Z,99.10
2022-09-04T02:41:48.330Z,99.46
2022-09-04T02:42:48.151Z,99.10
2022-09-04T02:43:48.132Z,99.51
2022-09-04T02:44:48.182Z,99.61
2022-09-04T02:45:48.114Z,99.51
2022-09-04T02:46:48.128Z,99.61
2022-09-04T02:47:48.145Z,99.51
2022-09-04T02:48:48.090Z,99.99
2022-09-04T02:49:48.093Z,99.99
2022-09-04T02:50:48.062Z,99.99
2022-09-04T02:51:48.047Z,99.99
2022-09-04T02:52:48.494Z,99.81
2022-09-04T02:53:48.034Z,99.99
2022-09-04T02:54:48.051Z,99.96
2022-09-04T02:55:48.002Z,99.99
2022-09-04T02:56:47.997Z,99.99
2022-09-04T02:57:47.979Z,99.99
2022-09-04T02:58:48.010Z,99.99
2022-09-04T02:59:47.985Z,99.99
2022-09-04T03:00:47.979Z,99.99
2022-09-04T03:01:50.463Z,99.86
2022-09-04T03:02:47.930Z,99.99
2022-09-04T03:03:47.917Z,99.99
2022-09-04T03:04:47.991Z,99.99
2022-09-04T03:05:47.897Z,99.96
2022-09-04T03:06:47.885Z,99.99
2022-09-04T03:07:47.874Z,99.41
2022-09-04T03:08:47.885Z,99.41
2022-09-04T03:09:47.897Z,99.51
2022-09-04T03:10:47.890Z,99.61
2022-09-04T03:11:47.842Z,99.41
2022-09-04T03:12:47.819Z,99.51
2022-09-04T03:13:47.858Z,99.61
2022-09-04T03:14:47.812Z,99.30
2022-09-04T03:15:47.895Z,99.81
2022-09-04T03:16:47.821Z,99.99
2022-09-04T03:17:47.768Z,99.99
2022-09-04T03:18:47.761Z,99.91
2022-09-04T03:19:47.765Z,99.46
2022-09-04T03:20:47.734Z,99.99
2022-09-04T03:21:47.726Z,99.99
2022-09-04T03:22:47.772Z,99.99
2022-09-04T03:23:47.701Z,99.99
2022-09-04T03:24:47.726Z,99.99
2022-09-04T03:25:47.678Z,99.76
2022-09-04T03:26:47.667Z,99.99
2022-09-04T03:27:47.657Z,99.99
2022-09-04T03:28:47.694Z,99.86
2022-09-04T03:29:47.679Z,99.99
2022-09-04T03:30:47.624Z,99.99
2022-09-04T03:31:47.665Z,99.99
2022-09-04T03:32:47.602Z,99.96
2022-09-04T03:33:47.592Z,99.99
2022-09-04T03:34:47.677Z,99.86
2022-09-04T03:35:47.570Z,99.99
2022-09-04T03:36:47.563Z,99.99
2022-09-04T03:37:47.559Z,99.96
2022-09-04T03:38:47.537Z,99.99
2022-09-04T03:39:47.617Z,99.99
2022-09-04T03:40:47.560Z,99.99
2022-09-04T03:41:47.519Z,99.99
2022-09-04T03:42:47.507Z,99.99
2022-09-04T03:43:47.486Z,99.99
2022-09-04T03:44:47.490Z,99.99
2022-09-04T03:45:48.462Z,99.99
2022-09-04T03:46:47.578Z,99.99
2022-09-04T03:47:47.442Z,99.99
2022-09-04T03:48:47.431Z,99.99
2022-09-04T03:49:47.446Z,99.99
2022-09-04T03:50:47.415Z,99.99
2022-09-04T03:51:47.399Z,99.99
2022-09-04T03:52:47.427Z,99.99
2022-09-04T03:53:47.387Z,99.99
2022-09-04T03:54:47.383Z,99.99
2022-09-04T03:55:47.401Z,99.99
2022-09-04T03:56:47.347Z,99.99
2022-09-04T03:57:47.343Z,99.99
2022-09-04T03:58:47.362Z,99.99
2022-09-04T03:59:47.328Z,99.99
2022-09-04T04:00:47.365Z,99.99
2022-09-04T04:01:47.295Z,99.99
2022-09-04T04:02:47.372Z,99.99
2022-09-04T04:03:47.271Z,99.99
2022-09-04T04:04:47.309Z,99.99
2022-09-04T04:05:48.394Z,99.99
2022-09-04T04:06:47.236Z,99.99
2022-09-04T04:07:47.226Z,99.99
2022-09-04T04:08:47.217Z,99.99
2022-09-04T04:09:47.223Z,99.99
2022-09-04T04:10:47.225Z,99.99
2022-09-04T04:11:47.188Z,99.99
2022-09-04T04:12:47.172Z,99.99
2022-09-04T04:13:47.163Z,99.99
2022-09-04T04:14:47.164Z,99.99
2022-09-04T04:15:47.180Z,99.99
2022-09-04T04:16:50.325Z,99.99
2022-09-04T04:17:48.121Z,99.99
2022-09-04T04:18:47.107Z,99.86
2022-09-04T04:19:47.111Z,99.76
2022-09-04T04:20:47.086Z,99.25
2022-09-04T04:21:47.078Z,99.81
2022-09-04T04:22:47.094Z,99.30
2022-09-04T04:23:47.076Z,99.41
2022-09-04T04:24:47.072Z,99.21
2022-09-04T04:25:47.045Z,99.51
2022-09-04T04:26:51.652Z,99.51
2022-09-04T04:27:48.652Z,99.30
2022-09-04T04:28:47.029Z,99.30
2022-09-04T04:29:46.990Z,99.30
2022-09-04T04:30:46.991Z,99.76
2022-09-04T04:31:47.077Z,99.51
2022-09-04T04:32:47.003Z,99.55
2022-09-04T04:33:46.950Z,99.35
2022-09-04T04:34:46.987Z,99.15
2022-09-04T04:35:46.929Z,99.71
2022-09-04T04:36:46.914Z,99.66
2022-09-04T04:37:46.907Z,99.46
2022-09-04T04:38:46.910Z,99.99
2022-09-04T04:39:46.928Z,99.86
2022-09-04T04:40:46.906Z,99.66
2022-09-04T04:41:46.869Z,99.25
2022-09-04T04:42:46.848Z,99.55
2022-09-04T04:43:46.856Z,99.55
2022-09-04T04:44:46.827Z,99.25
2022-09-04T04:45:46.822Z,99.46
2022-09-04T04:46:46.867Z,99.55
2022-09-04T04:47:46.798Z,99.05
2022-09-04T04:48:46.800Z,99.25
2022-09-04T04:49:46.775Z,99.46
2022-09-04T04:50:46.762Z,99.55
2022-09-04T04:51:46.754Z,99.25
2022-09-04T04:52:46.788Z,99.61
2022-09-04T04:53:46.746Z,99.86
2022-09-04T04:54:46.718Z,99.99
2022-09-04T04:55:46.709Z,99.99
2022-09-04T04:56:46.698Z,99.99
2022-09-04T04:57:46.693Z,99.96
2022-09-04T04:58:46.730Z,99.99
2022-09-04T04:59:46.667Z,99.96
2022-09-04T05:00:46.695Z,99.99
2022-09-04T05:01:46.736Z,99.99
2022-09-04T05:02:46.911Z,99.99
2022-09-04T05:03:46.646Z,99.99
2022-09-04T05:04:46.638Z,99.99
2022-09-04T05:05:46.616Z,99.85
2022-09-04T05:06:46.587Z,99.95
2022-09-04T05:07:46.585Z,99.99
2022-09-04T05:08:46.594Z,99.69
2022-09-04T05:09:46.560Z,99.90
2022-09-04T05:10:46.583Z,99.99
2022-09-04T05:11:46.553Z,99.99
2022-09-04T05:12:46.526Z,99.99
2022-09-04T05:13:48.560Z,99.99
2022-09-04T05:14:46.520Z,99.99
2022-09-04T05:16:07.335Z,99.99
2022-09-04T05:16:50.030Z,99.99
2022-09-04T05:17:46.473Z,99.99
2022-09-04T05:18:46.457Z,99.99
2022-09-04T05:19:46.467Z,99.99
2022-09-04T05:20:46.436Z,99.99
2022-09-04T05:21:46.445Z,99.99
2022-09-04T05:22:46.475Z,99.99
2022-09-04T05:23:46.406Z,99.99
2022-09-04T05:24:46.407Z,99.99
2022-09-04T05:25:46.384Z,99.99
2022-09-04T05:26:46.398Z,99.99
2022-09-04T05:27:46.364Z,99.99
2022-09-04T05:28:46.391Z,99.99
2022-09-04T05:29:46.401Z,99.99
2022-09-04T05:30:46.329Z,99.99
2022-09-04T05:31:46.318Z,99.99
2022-09-04T05:32:46.307Z,99.99
2022-09-04T05:33:46.320Z,99.99
2022-09-04T05:34:46.385Z,99.99
2022-09-04T05:35:46.287Z,99.99
2022-09-04T05:36:46.264Z,99.99
2022-09-04T05:37:46.255Z,99.99
2022-09-04T05:38:46.243Z,99.99
2022-09-04T05:39:46.325Z,99.99
2022-09-04T05:40:46.265Z,99.99
2022-09-04T05:41:46.230Z,99.99
2022-09-04T05:42:46.205Z,99.99
2022-09-04T05:43:46.190Z,99.99
2022-09-04T05:44:46.245Z,99.99
2022-09-04T05:45:46.213Z,99.99
2022-09-04T05:46:46.290Z,99.99
2022-09-04T05:47:47.147Z,99.99
2022-09-04T05:48:46.165Z,99.99
2022-09-04T05:49:46.136Z,99.99
2022-09-04T05:50:46.130Z,99.01
2022-09-04T05:51:46.104Z,99.21
2022-09-04T05:52:46.094Z,99.16
2022-09-04T05:53:46.124Z,98.75
2022-09-04T05:54:46.085Z,99.46
2022-09-04T05:55:46.065Z,98.75
2022-09-04T05:56:46.051Z,98.30
2022-09-04T05:57:46.039Z,98.71
2022-09-04T05:58:46.029Z,98.61
2022-09-04T05:59:46.093Z,97.96
2022-09-04T06:00:46.010Z,97.55
2022-09-04T06:01:51.197Z,97.55
2022-09-04T06:02:47.086Z,97.10
2022-09-04T06:03:45.974Z,96.80
2022-09-04T06:04:45.976Z,96.49
2022-09-04T06:05:46.013Z,96.14
2022-09-04T06:06:45.941Z,95.94
2022-09-04T06:07:45.932Z,96.00
2022-09-04T06:08:45.922Z,95.39
2022-09-04T06:09:45.935Z,95.19
2022-09-04T06:10:45.919Z,95.39
2022-09-04T06:11:45.918Z,95.09
2022-09-04T06:12:45.886Z,94.84
2022-09-04T06:13:45.867Z,94.94
2022-09-04T06:14:45.885Z,95.55
2022-09-04T06:15:45.894Z,94.19
2022-09-04T06:16:45.865Z,93.44
2022-09-04T06:17:45.866Z,93.34
2022-09-04T06:18:45.811Z,92.54
2022-09-04T06:19:45.837Z,91.99
2022-09-04T06:20:45.789Z,92.05
2022-09-04T06:21:45.780Z,91.19
2022-09-04T06:22:48.137Z,89.60
2022-09-04T06:23:45.847Z,89.46
2022-09-04T06:24:45.778Z,88.35
2022-09-04T06:25:45.737Z,87.95
2022-09-04T06:26:45.722Z,88.01
2022-09-04T06:27:45.744Z,87.66
2022-09-04T06:28:46.262Z,84.91
2022-09-04T06:29:45.735Z,84.63
2022-09-04T06:30:45.681Z,83.49
2022-09-04T06:31:45.696Z,82.55
2022-09-04T06:32:45.679Z,82.21
2022-09-04T06:33:45.651Z,82.67
2022-09-04T06:34:45.654Z,80.99
2022-09-04T06:35:45.650Z,79.39
2022-09-04T06:36:45.618Z,80.26
2022-09-04T06:37:45.646Z,78.36
2022-09-04T06:38:45.620Z,79.49
2022-09-04T06:39:45.750Z,80.23
2022-09-04T06:40:45.576Z,80.79
2022-09-04T06:41:45.643Z,80.45
2022-09-04T06:42:45.553Z,77.42
2022-09-04T06:43:45.542Z,78.89
2022-09-04T06:44:45.542Z,78.45
2022-09-04T06:45:45.518Z,77.92
2022-09-04T06:46:45.556Z,77.14
2022-09-04T06:47:45.514Z,77.21
2022-09-04T06:48:45.532Z,77.31
2022-09-04T06:49:45.500Z,75.01
2022-09-04T06:50:45.465Z,74.34
2022-09-04T06:51:45.456Z,73.21
2022-09-04T06:52:45.446Z,74.11
2022-09-04T06:53:45.435Z,73.74
2022-09-04T06:54:45.472Z,73.11
2022-09-04T06:55:45.413Z,72.68
2022-09-04T06:56:45.399Z,72.94
2022-09-04T06:57:45.390Z,72.22
2022-09-04T06:58:45.414Z,74.21
2022-09-04T06:59:45.372Z,72.91
2022-09-04T07:00:45.356Z,73.04
2022-09-04T07:01:45.457Z,72.98
2022-09-04T07:02:45.463Z,72.55
2022-09-04T07:03:45.341Z,72.41
2022-09-04T07:04:45.337Z,74.37
2022-09-04T07:05:45.307Z,70.32
2022-09-04T07:06:45.316Z,70.52
2022-09-04T07:07:45.293Z,71.35
2022-09-04T07:08:45.288Z,71.28
2022-09-04T07:09:45.270Z,72.88
2022-09-04T07:10:45.321Z,71.19
2022-09-04T07:11:45.280Z,72.55
2022-09-04T07:12:45.243Z,74.21
2022-09-04T07:13:45.262Z,72.91
2022-09-04T07:14:45.212Z,73.24
2022-09-04T07:15:45.329Z,71.84
2022-09-04T07:16:45.219Z,73.21
2022-09-04T07:17:45.186Z,74.21
2022-09-04T07:18:45.249Z,73.28
2022-09-04T07:19:45.175Z,74.49
2022-09-04T07:20:45.140Z,76.95
2022-09-04T07:21:45.155Z,75.71
2022-09-04T07:22:45.118Z,75.64
2022-09-04T07:23:45.151Z,74.21
2022-09-04T07:24:45.126Z,74.98
2022-09-04T07:25:45.089Z,76.54
2022-09-04T07:26:45.089Z,73.21
2022-09-04T07:27:45.104Z,74.28
2022-09-04T07:28:45.079Z,74.18
2022-09-04T07:29:45.067Z,75.09
2022-09-04T07:30:45.044Z,75.87
2022-09-04T07:31:45.094Z,73.35
2022-09-04T07:32:45.019Z,74.11
2022-09-04T07:33:45.060Z,76.39
2022-09-04T07:34:45.008Z,74.89
2022-09-04T07:35:45.003Z,73.40
2022-09-04T07:36:44.972Z,72.01
2022-09-04T07:37:44.960Z,73.63
2022-09-04T07:38:45.337Z,75.59
2022-09-04T07:39:46.095Z,74.35
2022-09-04T07:40:44.938Z,72.44
2022-09-04T07:41:44.942Z,72.44
2022-09-04T07:42:44.907Z,75.29
2022-09-04T07:43:44.901Z,74.76
2022-09-04T07:44:44.904Z,72.37
2022-09-04T07:45:44.915Z,73.23
2022-09-04T07:46:44.915Z,72.56
2022-09-04T07:47:44.879Z,73.82
2022-09-04T07:48:44.866Z,70.48
2022-09-04T07:49:44.879Z,69.62
2022-09-04T07:50:44.861Z,70.57
2022-09-04T07:51:44.813Z,69.32
2022-09-04T07:52:44.799Z,69.02
2022-09-04T07:53:44.787Z,68.24
2022-09-04T07:54:44.815Z,68.30
2022-09-04T07:55:44.796Z,68.01
2022-09-04T07:56:44.773Z,67.25
2022-09-04T07:57:44.746Z,66.29
2022-09-04T07:58:44.731Z,68.20
2022-09-04T07:59:44.740Z,70.87
2022-09-04T08:00:44.739Z,67.54
2022-09-04T08:01:44.779Z,69.52
2022-09-04T08:02:44.727Z,68.90
2022-09-04T08:03:53.748Z,67.32
2022-09-04T08:04:45.707Z,67.18
2022-09-04T08:05:44.658Z,64.51
2022-09-04T08:06:44.676Z,67.18
2022-09-04T08:07:44.646Z,64.67
2022-09-04T08:08:44.653Z,65.99
2022-09-04T08:09:44.655Z,67.14
2022-09-04T08:10:44.603Z,66.62
2022-09-04T08:11:44.589Z,67.87
2022-09-04T08:12:44.582Z,67.97
2022-09-04T08:13:44.567Z,64.71
2022-09-04T08:14:44.691Z,65.70
2022-09-04T08:15:44.611Z,66.09
2022-09-04T08:16:44.551Z,63.10
2022-09-04T08:17:44.536Z,66.36
2022-09-04T08:18:44.542Z,63.96
2022-09-04T08:19:44.596Z,65.05
2022-09-04T08:20:44.515Z,62.57
2022-09-04T08:21:44.533Z,62.84
2022-09-04T08:22:44.492Z,64.45
2022-09-04T08:23:44.509Z,65.21
2022-09-04T08:24:44.601Z,63.63
2022-09-04T08:25:44.440Z,66.30
2022-09-04T08:26:44.452Z,66.82
2022-09-04T08:27:44.831Z,66.62
2022-09-04T08:28:46.389Z,67.35
2022-09-04T08:29:44.392Z,64.78
2022-09-04T08:30:44.587Z,66.09
2022-09-04T08:31:44.411Z,65.20
2022-09-04T08:32:44.362Z,67.67
2022-09-04T08:33:44.396Z,67.97
2022-09-04T08:34:44.474Z,69.13
2022-09-04T08:35:44.360Z,71.01
2022-09-04T08:36:44.327Z,70.12
2022-09-04T08:37:44.362Z,69.89
2022-09-04T08:38:44.358Z,69.49
2022-09-04T08:39:44.354Z,70.98
2022-09-04T08:40:44.287Z,69.76
2022-09-04T08:41:44.355Z,69.13
2022-09-04T08:42:44.272Z,72.33
2022-09-04T08:43:44.327Z,68.01
2022-09-04T08:44:44.278Z,69.16
2022-09-04T08:45:44.233Z,68.33
2022-09-04T08:46:44.307Z,71.83
2022-09-04T08:47:44.284Z,68.04
2022-09-04T08:48:44.228Z,67.41
2022-09-04T08:49:44.215Z,65.99
2022-09-04T08:50:44.239Z,67.68
2022-09-04T08:51:44.160Z,67.02
2022-09-04T08:52:44.150Z,69.85
2022-09-04T08:53:44.146Z,69.78
2022-09-04T08:54:44.173Z,62.71
2022-09-04T08:55:44.154Z,67.15
2022-09-04T08:56:44.172Z,66.95
2022-09-04T08:57:44.124Z,66.03
2022-09-04T08:58:47.841Z,64.15
2022-09-04T08:59:44.132Z,64.59
2022-09-04T09:00:44.076Z,63.00
2022-09-04T09:01:44.170Z,65.01
2022-09-04T09:02:44.131Z,66.22
2022-09-04T09:03:44.030Z,71.56
2022-09-04T09:04:44.072Z,69.52
2022-09-04T09:05:44.044Z,64.81
2022-09-04T09:06:44.012Z,69.06
2022-09-04T09:07:43.994Z,66.49
2022-09-04T09:08:44.067Z,68.13
2022-09-04T09:09:43.997Z,70.21
2022-09-04T09:10:43.983Z,70.48
2022-09-04T09:11:43.962Z,68.27
2022-09-04T09:12:43.948Z,67.25
2022-09-04T09:13:43.939Z,67.51
2022-09-04T09:14:43.933Z,65.90
2022-09-04T09:15:43.920Z,70.73
2022-09-04T09:16:44.110Z,64.29
2022-09-04T09:17:43.897Z,64.16
2022-09-04T09:18:43.882Z,66.56
2022-09-04T09:19:43.921Z,64.29
2022-09-04T09:20:43.925Z,65.18
2022-09-04T09:21:43.905Z,67.12
2022-09-04T09:22:43.842Z,65.77
2022-09-04T09:23:43.867Z,65.87
2022-09-04T09:24:43.834Z,62.62
2022-09-04T09:25:44.167Z,63.96
2022-09-04T09:26:43.793Z,64.89
2022-09-04T09:27:43.795Z,61.54
2022-09-04T09:28:43.766Z,66.69
2022-09-04T09:29:43.829Z,66.43
2022-09-04T09:30:43.846Z,62.62
2022-09-04T09:31:43.732Z,63.60
2022-09-04T09:32:43.775Z,64.39
2022-09-04T09:33:43.719Z,63.04
2022-09-04T09:34:43.791Z,61.85
2022-09-04T09:35:43.731Z,68.17
2022-09-04T09:36:43.700Z,67.11
2022-09-04T09:37:43.667Z,68.57
2022-09-04T09:38:43.674Z,66.46
2022-09-04T09:39:43.844Z,62.84
2022-09-04T09:40:43.666Z,64.72
2022-09-04T09:41:43.631Z,62.51
2022-09-04T09:42:43.630Z,65.86
2022-09-04T09:43:44.022Z,64.18
2022-09-04T09:44:44.626Z,68.40
2022-09-04T09:45:43.903Z,66.03
2022-09-04T09:46:43.579Z,64.15
2022-09-04T09:47:43.563Z,67.32
2022-09-04T09:48:43.581Z,65.93
2022-09-04T09:49:43.746Z,63.66
2022-09-04T09:50:43.539Z,62.71
2022-09-04T09:51:43.539Z,65.86
2022-09-04T09:52:43.573Z,64.75
2022-09-04T09:53:46.989Z,64.45
2022-09-04T09:54:43.636Z,67.74
2022-09-04T09:55:43.488Z,68.17
2022-09-04T09:56:53.574Z,66.66
2022-09-04T09:57:44.463Z,64.56
2022-09-04T09:58:43.510Z,67.18
2022-09-04T09:59:43.459Z,64.07
2022-09-04T10:00:43.439Z,67.02
2022-09-04T10:01:43.503Z,63.22
2022-09-04T10:02:43.843Z,64.37
2022-09-04T10:03:43.622Z,63.98
2022-09-04T10:04:43.405Z,60.73
2022-09-04T10:05:43.401Z,64.47
2022-09-04T10:06:43.414Z,60.80
2022-09-04T10:07:43.401Z,58.51
2022-09-04T10:08:43.384Z,56.18
2022-09-04T10:09:43.388Z,57.66
2022-09-04T10:10:43.385Z,61.25
2022-09-04T10:11:43.754Z,59.31
2022-09-04T10:12:43.348Z,60.93
2022-09-04T10:13:43.306Z,62.01
2022-09-04T10:14:43.362Z,63.39
2022-09-04T10:15:43.338Z,60.34
2022-09-04T10:16:43.299Z,60.05
2022-09-04T10:17:43.256Z,60.60
2022-09-04T10:18:43.295Z,58.86
2022-09-04T10:19:43.262Z,57.98
2022-09-04T10:20:43.310Z,58.57
2022-09-04T10:21:43.255Z,58.67
2022-09-04T10:22:43.205Z,59.88
2022-09-04T10:23:43.192Z,56.63
2022-09-04T10:24:43.260Z,58.99
2022-09-04T10:25:43.233Z,58.62
2022-09-04T10:26:43.181Z,53.29
2022-09-04T10:27:44.109Z,54.66
2022-09-04T10:28:43.302Z,56.43
2022-09-04T10:29:43.179Z,53.49
2022-09-04T10:30:43.219Z,57.84
2022-09-04T10:31:43.133Z,56.16
2022-09-04T10:32:43.123Z,56.34
2022-09-04T10:33:43.215Z,59.31
2022-09-04T10:34:43.143Z,60.14
2022-09-04T10:35:43.081Z,56.58
2022-09-04T10:43:53.952Z,54.00
2022-09-04T10:44:52.953Z,50.63
2022-09-04T10:53:13.559Z,56.40
2022-09-04T10:54:13.539Z,54.63
2022-09-04T10:55:13.540Z,56.97
2022-09-04T10:56:13.516Z,55.68
2022-09-04T10:57:13.506Z,53.47
2022-09-04T10:58:13.535Z,54.30
2022-09-04T10:59:13.491Z,57.82
2022-09-04T11:00:13.676Z,60.55
2022-09-04T11:01:13.692Z,54.45
2022-09-04T11:02:13.579Z,55.04
2022-09-04T11:03:13.448Z,57.90
2022-09-04T11:04:13.444Z,56.64
2022-09-04T11:05:13.463Z,54.94
2022-09-04T11:06:13.421Z,54.49
2022-09-04T11:07:13.441Z,53.68
2022-09-04T11:08:13.408Z,57.68
2022-09-04T11:09:13.448Z,56.73
2022-09-04T11:10:13.688Z,53.24
2022-09-04T11:11:13.384Z,54.35
2022-09-04T11:12:13.383Z,57.45
2022-09-04T11:13:13.353Z,60.27
2022-09-04T11:14:13.370Z,56.28
2022-09-04T11:15:13.356Z,56.68
2022-09-04T11:21:03.687Z,52.45
2022-09-04T11:22:03.690Z,53.82
2022-09-04T11:23:03.666Z,54.50
2022-09-04T11:24:03.644Z,53.36
2022-09-04T11:25:03.651Z,56.42
2022-09-04T11:26:03.657Z,53.26
2022-09-04T11:27:07.918Z,52.94
2022-09-04T11:28:03.608Z,51.37
2022-09-04T11:29:03.587Z,50.71
2022-09-04T11:30:03.618Z,50.51
2022-09-04T11:31:03.570Z,52.28
2022-09-04T11:32:03.676Z,52.37
2022-09-04T11:33:03.604Z,51.34
2022-09-04T11:34:03.648Z,56.92
2022-09-04T11:35:03.565Z,55.66
2022-09-04T11:36:05.765Z,54.17
2022-09-04T11:37:03.517Z,50.07
2022-09-04T11:38:03.504Z,54.71
2022-09-04T11:39:03.489Z,51.25
2022-09-04T11:40:03.658Z,53.90
2022-09-04T11:41:03.474Z,52.30
2022-09-04T11:42:03.488Z,51.10
2022-09-04T11:43:03.666Z,49.48
2022-09-04T11:44:03.571Z,50.21
2022-09-04T11:45:03.480Z,49.23
2022-09-04T11:46:03.477Z,47.78
2022-09-04T11:47:03.415Z,52.03
2022-09-04T11:48:03.406Z,57.71
2022-09-04T11:49:03.432Z,52.08
2022-09-04T11:50:03.415Z,50.14
2022-09-04T11:51:03.429Z,46.97
2022-09-04T11:52:03.517Z,50.12
2022-09-04T11:53:03.674Z,48.47
2022-09-04T11:54:03.381Z,49.16
2022-09-04T11:55:03.355Z,52.70
2022-09-04T11:56:03.384Z,49.28
2022-09-04T11:57:03.317Z,49.52
2022-09-04T11:58:03.366Z,50.24
2022-09-04T11:59:03.307Z,50.09
2022-09-04T12:00:03.324Z,50.66
2022-09-04T12:01:03.341Z,49.55
2022-09-04T12:02:03.468Z,50.39
2022-09-04T12:03:03.311Z,50.56
2022-09-04T12:04:03.288Z,46.31
2022-09-04T12:05:03.291Z,51.22
2022-09-04T12:06:03.250Z,50.39
2022-09-04T12:07:03.221Z,50.16
2022-09-04T12:08:03.247Z,48.94
2022-09-04T12:09:03.210Z,47.94
2022-09-04T12:10:03.278Z,47.55
2022-09-04T12:11:03.242Z,48.60
2022-09-04T12:12:03.178Z,45.56
2022-09-04T12:13:14.974Z,47.52
2022-09-04T12:14:04.156Z,47.42
2022-09-04T12:15:07.584Z,46.74
2022-09-04T12:16:04.155Z,46.72
2022-09-04T12:17:03.190Z,43.99
2022-09-04T12:18:03.134Z,44.21
2022-09-04T12:19:03.424Z,44.57
2022-09-04T12:20:06.165Z,50.34
2022-09-04T12:21:03.094Z,51.39
2022-09-04T12:22:03.078Z,50.66
2022-09-04T12:23:03.064Z,49.26
2022-09-04T12:24:03.059Z,47.79
2022-09-04T12:25:03.091Z,47.47
2022-09-04T12:26:03.082Z,45.64
2022-09-04T12:27:03.054Z,47.91
2022-09-04T12:28:03.190Z,47.72
2022-09-04T12:29:03.130Z,49.58
2022-09-04T12:30:02.998Z,44.48
2022-09-04T12:31:03.028Z,47.42
2022-09-04T12:32:03.072Z,49.29
2022-09-04T12:33:03.047Z,47.57
2022-09-04T12:34:03.960Z,48.99
2022-09-04T12:35:02.993Z,47.72
2022-09-04T12:36:02.943Z,51.90
2022-09-04T12:37:03.345Z,47.01
2022-09-04T12:38:02.969Z,45.44
2022-09-04T12:39:02.920Z,44.09
2022-09-04T12:40:03.007Z,44.88
2022-09-04T12:41:02.915Z,43.99
2022-09-04T12:42:02.878Z,43.04
2022-09-04T12:43:02.872Z,46.64
2022-09-04T12:44:02.871Z,43.95
2022-09-04T12:45:02.907Z,44.44
2022-09-04T12:46:04.215Z,41.94
2022-09-04T12:47:02.870Z,42.86
2022-09-04T12:48:02.818Z,44.47
2022-09-04T12:49:02.822Z,44.69
2022-09-04T12:50:02.809Z,44.95
2022-09-04T12:51:02.812Z,45.59
2022-09-04T12:52:02.783Z,48.42
2022-09-04T12:53:02.807Z,49.38
2022-09-04T12:54:02.787Z,46.68
2022-09-04T12:55:02.917Z,45.01
2022-09-04T12:56:02.776Z,44.95
2022-09-04T12:57:02.763Z,44.68
2022-09-04T12:58:02.714Z,50.46
2022-09-04T12:59:03.728Z,47.86
2022-09-04T13:00:02.723Z,49.31
2022-09-04T13:01:02.860Z,46.36
2022-09-04T13:02:02.764Z,44.81
2022-09-04T13:03:02.834Z,45.35
2022-09-04T13:04:02.689Z,45.05
2022-09-04T13:05:02.748Z,45.27
2022-09-04T13:06:02.637Z,44.68
2022-09-04T13:07:02.622Z,49.11
2022-09-04T13:08:02.624Z,51.40
2022-09-04T13:09:02.634Z,50.83
2022-09-04T13:10:02.633Z,51.54
2022-09-04T13:11:02.605Z,53.74
2022-09-04T13:12:02.696Z,52.06